Time;durP1;ratioP1;P1;durP2;ratioP2;P2;SDS_P1;SDS_P2;PMS_P1;PMS_P2;Temp;Humidity;BMP_temperature;BMP_pressure;BME280_temperature;BME280_humidity;BME280_pressure;Samples;Min_cycle;Max_cycle;Signal;HPM_P1;HPM_P2
2023/09/23 08:03:41;;;;;;;0.70;0.30;;;21.40;56.80;;;;;;6463364;27;20297;-40
2023/09/23 08:06:43;;;;;;;1.65;0.40;;;21.40;54.80;;;;;;6436326;27;20053;-40
2023/09/23 08:09:44;;;;;;;0.38;0.38;;;21.60;55.00;;;;;;6435830;27;20122;-41
2023/09/23 08:12:48;;;;;;;;;;;21.50;54.80;;;;;;6435988;27;20034;-40
2023/09/23 08:15:50;;;;;;;1.05;0.40;;;21.70;55.20;;;;;;6436842;27;19930;-41
2023/09/23 08:18:52;;;;;;;0.32;0.28;;;21.50;54.90;;;;;;6436845;27;20072;-39
2023/09/23 08:21:56;;;;;;;2.92;0.50;;;21.60;54.90;;;;;;6436091;27;20464;-40
2023/09/23 08:24:58;;;;;;;1.23;0.52;;;21.30;54.80;;;;;;6436337;27;20046;-41
2023/09/23 08:27:59;;;;;;;;;;;21.40;55.10;;;;;;6435383;27;20046;-40
2023/09/23 08:31:01;;;;;;;;;;;21.50;55.40;;;;;;6395850;27;19923;-41
2023/09/23 08:34:09;;;;;;;1.80;0.25;;;21.70;55.70;;;;;;6417577;27;19927;-41
2023/09/23 08:37:10;;;;;;;0.98;0.40;;;21.50;55.20;;;;;;6409873;27;20446;-41
2023/09/23 08:40:12;;;;;;;0.47;0.30;;;21.20;55.30;;;;;;6409634;27;20431;-41
2023/09/23 08:43:23;;;;;;;0.85;0.38;;;21.50;55.30;;;;;;6410080;27;20046;-42
2023/09/23 08:46:26;;;;;;;0.75;0.30;;;21.20;55.10;;;;;;6409745;27;20484;-41
2023/09/23 08:49:31;;;;;;;0.55;0.28;;;21.10;54.90;;;;;;6409454;27;20189;-43
2023/09/23 08:52:34;;;;;;;0.40;0.30;;;21.50;55.30;;;;;;6408447;27;20519;-40
2023/09/23 08:55:36;;;;;;;0.30;0.30;;;21.50;55.20;;;;;;6390639;27;20038;-40
2023/09/23 08:58:38;;;;;;;0.63;0.38;;;21.20;55.20;;;;;;6408932;27;20050;-42
2023/09/23 09:01:41;;;;;;;;;;;21.60;55.30;;;;;;6409388;27;20069;-46
2023/09/23 09:04:44;;;;;;;0.70;0.32;;;21.60;53.20;;;;;;6408995;27;19975;-42
2023/09/23 09:07:47;;;;;;;0.70;0.40;;;21.40;55.20;;;;;;6409149;27;20050;-41
2023/09/23 09:10:48;;;;;;;;;;;21.20;55.30;;;;;;6409519;27;20051;-40
2023/09/23 09:13:50;;;;;;;0.68;0.30;;;21.50;55.70;;;;;;6399178;27;19929;-40
2023/09/23 09:16:52;;;;;;;0.47;0.38;;;21.20;55.40;;;;;;6391827;27;20112;-42
2023/09/23 09:20:00;;;;;;;1.08;0.50;;;21.60;55.50;;;;;;6391620;27;20043;-42
2023/09/23 09:23:01;;;;;;;0.47;0.30;;;21.50;55.30;;;;;;6391288;27;20050;-40
2023/09/23 09:26:04;;;;;;;0.75;0.40;;;21.50;55.40;;;;;;6391930;27;20047;-42
2023/09/23 09:29:06;;;;;;;0.40;0.40;;;21.60;55.50;;;;;;6391033;27;20050;-41
2023/09/23 09:32:09;;;;;;;0.80;0.50;;;21.50;55.20;;;;;;6391695;27;20542;-40
2023/09/23 09:35:13;;;;;;;0.68;0.50;;;21.60;55.30;;;;;;6391101;27;20464;-41
2023/09/23 09:38:19;;;;;;;0.65;0.43;;;21.50;55.10;;;;;;6390731;27;20046;-40
2023/09/23 09:41:28;;;;;;;0.40;0.30;;;21.70;55.20;;;;;;6391551;27;20059;-40
2023/09/23 09:44:30;;;;;;;0.68;0.35;;;21.60;55.10;;;;;;6339928;27;20086;-40
2023/09/23 09:47:32;;;;;;;0.60;0.30;;;21.30;54.90;;;;;;6391650;27;20114;-42
2023/09/23 09:50:38;;;;;;;0.60;0.40;;;21.60;55.10;;;;;;6391006;27;20507;-40
2023/09/23 09:53:42;;;;;;;1.23;0.55;;;21.40;54.70;;;;;;6388724;27;20443;-43
2023/09/23 09:56:46;;;;;;;0.65;0.28;;;21.70;54.80;;;;;;6391344;27;20041;-41
2023/09/23 09:59:47;;;;;;;0.20;0.20;;;21.50;54.60;;;;;;6391161;27;20043;-40
2023/09/23 10:02:48;;;;;;;;;;;21.80;54.70;;;;;;6390763;27;20039;-41
2023/09/23 10:05:53;;;;;;;0.43;0.30;;;21.60;54.90;;;;;;6386758;27;19923;-41
2023/09/23 10:08:57;;;;;;;0.50;0.40;;;21.40;54.40;;;;;;6390002;27;20409;-41
2023/09/23 10:12:02;;;;;;;0.90;0.30;;;21.70;54.20;;;;;;6391048;27;20054;-41
2023/09/23 10:15:07;;;;;;;1.00;0.52;;;21.50;54.00;;;;;;6371939;27;20039;-40
2023/09/23 10:18:10;;;;;;;0.68;0.52;;;21.70;53.70;;;;;;6390123;27;20054;-40
2023/09/23 10:21:23;;;;;;;0.60;0.50;;;21.70;53.50;;;;;;6390117;27;20054;-42
2023/09/23 10:24:27;;;;;;;0.45;0.35;;;21.80;53.30;;;;;;6389297;27;20049;-41
2023/09/23 10:27:29;;;;;;;0.98;0.70;;;21.80;53.30;;;;;;6388264;27;20663;-40
2023/09/23 10:30:32;;;;;;;;;;;21.70;53.10;;;;;;6390961;27;20100;-40
2023/09/23 10:33:36;;;;;;;0.77;0.40;;;21.80;53.20;;;;;;6387454;27;19929;-42
2023/09/23 10:36:40;;;;;;;0.47;0.28;;;21.80;52.70;;;;;;6369129;27;20435;-40
2023/09/23 10:39:44;;;;;;;0.50;0.40;;;21.70;52.10;;;;;;6387735;27;20050;-40
2023/09/23 10:42:46;;;;;;;0.30;0.30;;;21.60;51.80;;;;;;6387592;27;20057;-40
2023/09/23 10:45:48;;;;;;;0.30;0.20;;;22.40;51.90;;;;;;6387605;27;20504;-40
2023/09/23 10:48:52;;;;;;;0.70;0.40;;;21.40;51.30;;;;;;6387427;27;20495;-42
2023/09/23 10:51:54;;;;;;;;;;;21.70;51.20;;;;;;6386886;27;20054;-40
2023/09/23 10:54:57;;;;;;;0.40;0.30;;;21.80;51.50;;;;;;6386926;27;19930;-40
2023/09/23 10:57:59;;;;;;;0.45;0.20;;;21.70;51.00;;;;;;6385911;27;20058;-42
2023/09/23 11:01:00;;;;;;;0.60;0.50;;;21.80;50.80;;;;;;6386232;27;20038;-41
2023/09/23 11:04:06;;;;;;;0.47;0.30;;;21.90;50.40;;;;;;6386400;27;20158;-42
2023/09/23 11:07:08;;;;;;;0.80;0.50;;;21.80;50.10;;;;;;6386208;27;20074;-43
2023/09/23 11:10:13;;;;;;;0.90;0.50;;;21.80;49.80;;;;;;6385853;27;20099;-41
2023/09/23 11:13:16;;;;;;;0.40;0.30;;;21.80;48.20;;;;;;6382812;27;20054;-40
2023/09/23 11:16:17;;;;;;;0.40;0.30;;;21.80;49.30;;;;;;6385188;27;20534;-40
2023/09/23 11:19:19;;;;;;;0.77;0.50;;;21.70;49.30;;;;;;6386020;27;20682;-44
2023/09/23 11:22:26;;;;;;;0.63;0.40;;;22.00;49.20;;;;;;6384078;27;20127;-41
2023/09/23 11:25:33;;;;;;;0.38;0.30;;;22.10;48.80;;;;;;6386066;27;20042;-44
2023/09/23 11:28:35;;;;;;;0.32;0.28;;;22.20;48.90;;;;;;6386133;27;20046;-43
2023/09/23 11:31:36;;;;;;;;;;;22.00;48.70;;;;;;6386703;27;20142;-40
2023/09/23 11:34:37;;;;;;;0.45;0.30;;;22.00;49.10;;;;;;6385919;27;20348;-41
2023/09/23 11:37:40;;;;;;;0.50;0.30;;;22.00;49.00;;;;;;6385738;27;20099;-43
2023/09/23 11:40:42;;;;;;;0.52;0.30;;;21.90;48.40;;;;;;6385491;27;20049;-40
2023/09/23 11:43:50;;;;;;;0.57;0.30;;;21.90;48.80;;;;;;6385273;27;20042;-42
2023/09/23 11:46:51;;;;;;;0.50;0.50;;;21.60;48.00;;;;;;6384486;27;20047;-40
2023/09/23 11:49:52;;;;;;;;;;;21.90;48.20;;;;;;6385761;27;20039;-39
2023/09/23 11:52:56;;;;;;;;;;;21.90;50.50;;;;;;6385546;27;19951;-41
2023/09/23 11:55:58;;;;;;;;;;;22.50;51.00;;;;;;6385737;27;19922;-40
2023/09/23 11:58:59;;;;;;;;;;;21.70;50.70;;;;;;6385798;27;20475;-40
2023/09/23 12:02:10;;;;;;;;;;;22.10;51.10;;;;;;6385522;27;19946;-40
2023/09/23 12:05:12;;;;;;;;;;;22.10;51.20;;;;;;6385924;27;20334;-40
2023/09/23 12:08:14;;;;;;;;;;;22.20;51.40;;;;;;6384577;27;20357;-41
2023/09/23 12:11:16;;;;;;;;;;;22.00;51.30;;;;;;6382516;27;19926;-40
2023/09/23 12:14:19;;;;;;;;;;;22.20;51.60;;;;;;6383500;27;19923;-40
2023/09/23 12:17:22;;;;;;;;;;;22.30;51.60;;;;;;6385376;27;19945;-40
2023/09/23 12:20:24;;;;;;;;;;;22.30;51.70;;;;;;6385527;27;20042;-41
2023/09/23 12:23:29;;;;;;;;;;;22.00;51.70;;;;;;6385290;27;19923;-41
2023/09/23 12:26:31;;;;;;;;;;;22.30;51.90;;;;;;6385731;27;19930;-42
2023/09/23 12:29:32;;;;;;;;;;;22.00;51.80;;;;;;6385135;27;19922;-40
2023/09/23 12:32:34;;;;;;;;;;;22.60;52.30;;;;;;6385081;27;19991;-40
2023/09/23 12:35:35;;;;;;;;;;;22.00;52.00;;;;;;6384837;27;19923;-42
2023/09/23 12:38:37;;;;;;;;;;;22.10;52.10;;;;;;6383285;27;20304;-40
2023/09/23 12:41:40;;;;;;;;;;;22.20;52.10;;;;;;6383745;27;19927;-40
2023/09/23 12:44:42;;;;;;;;;;;22.30;52.10;;;;;;6385525;27;19923;-41
2023/09/23 12:47:46;;;;;;;;;;;22.30;52.30;;;;;;6383393;27;19958;-42
2023/09/23 12:50:58;;;;;;;;;;;22.20;52.10;;;;;;6389196;27;20351;-43
2023/09/23 12:54:00;;;;;;;;;;;22.30;52.30;;;;;;6389912;27;20296;-41
2023/09/23 12:57:02;;;;;;;;;;;22.20;52.40;;;;;;6389429;27;19996;-40
2023/09/23 13:00:05;;;;;;;;;;;22.20;52.40;;;;;;6387283;27;20390;-41
2023/09/23 13:03:08;;;;;;;;;;;22.40;52.50;;;;;;6388978;27;19930;-44
2023/09/23 13:06:13;;;;;;;;;;;22.60;52.50;;;;;;6388666;27;19927;-40
2023/09/23 13:09:15;;;;;;;;;;;22.50;52.60;;;;;;6388247;27;20067;-41
2023/09/23 13:12:17;;;;;;;;;;;22.10;52.40;;;;;;6388697;27;19929;-41
2023/09/23 13:15:18;;;;;;;;;;;22.60;52.80;;;;;;6388606;27;19927;-42
2023/09/23 13:18:20;;;;;;;;;;;22.40;52.60;;;;;;6388658;27;19923;-40
2023/09/23 13:21:22;;;;;;;;;;;22.90;52.90;;;;;;6388904;27;20807;-41
2023/09/23 13:24:28;;;;;;;;;;;22.40;52.60;;;;;;6389172;27;20427;-41
2023/09/23 13:27:30;;;;;;;;;;;23.00;52.90;;;;;;6388412;27;19926;-40
2023/09/23 13:30:31;;;;;;;;;;;22.40;52.60;;;;;;6388614;27;19972;-40
2023/09/23 13:33:33;;;;;;;;;;;22.60;52.80;;;;;;6388030;27;20406;-42
2023/09/23 13:36:35;;;;;;;;;;;22.40;52.80;;;;;;6382990;27;20014;-42
2023/09/23 13:39:41;;;;;;;;;;;22.80;52.90;;;;;;6387631;27;20408;-44
2023/09/23 13:42:42;;;;;;;;;;;22.50;52.70;;;;;;6388468;27;19942;-42
2023/09/23 13:45:45;;;;;;;;;;;22.80;52.90;;;;;;6384575;27;20049;-44
2023/09/23 13:48:48;;;;;;;;;;;22.10;52.50;;;;;;6384452;27;19926;-43
2023/09/23 13:51:49;;;;;;;;;;;22.60;52.80;;;;;;6385727;27;20368;-41
2023/09/23 13:54:53;;;;;;;;;;;22.70;52.80;;;;;;6388126;27;20009;-43
2023/09/23 13:57:57;;;;;;;;;;;23.00;53.00;;;;;;6388104;27;20114;-42
2023/09/23 14:01:01;;;;;;;;;;;22.70;52.70;;;;;;6387674;27;19923;-40
2023/09/23 14:04:03;;;;;;;;;;;22.60;52.80;;;;;;6387830;27;20280;-41
2023/09/23 14:07:05;;;;;;;;;;;22.80;52.40;;;;;;6386903;27;20299;-42
2023/09/23 14:10:07;;;;;;;;;;;23.00;53.10;;;;;;6386788;27;19929;-41
2023/09/23 14:13:22;;;;;;;;;;;22.70;52.90;;;;;;6355414;27;20448;-42
2023/09/23 14:16:24;;;;;;;;;;;22.80;53.00;;;;;;6385531;27;19968;-40
2023/09/23 14:19:25;;;;;;;;;;;22.40;52.70;;;;;;6384344;27;19923;-41
2023/09/23 14:22:29;;;;;;;;;;;22.80;53.30;;;;;;6387509;27;20304;-41
2023/09/23 14:25:31;;;;;;;;;;;22.70;52.90;;;;;;6387548;27;19922;-42
2023/09/23 14:28:35;;;;;;;;;;;22.90;53.10;;;;;;6384115;27;19929;-42
2023/09/23 14:31:36;;;;;;;;;;;22.80;53.00;;;;;;6383418;27;19969;-43
2023/09/23 14:34:37;;;;;;;;;;;22.60;53.00;;;;;;6383727;27;20283;-40
2023/09/23 14:37:39;;;;;;;;;;;22.70;53.00;;;;;;6383248;27;19927;-41
2023/09/23 14:40:41;;;;;;;;;;;22.80;53.10;;;;;;6383559;27;19991;-42
2023/09/23 14:43:43;;;;;;;;;;;22.60;52.90;;;;;;6383637;27;19991;-42
2023/09/23 14:46:44;;;;;;;;;;;23.00;53.20;;;;;;6386620;27;19923;-42
2023/09/23 14:49:47;;;;;;;;;;;22.70;52.90;;;;;;6386542;27;20431;-41
2023/09/23 14:52:48;;;;;;;;;;;22.90;53.00;;;;;;6387284;27;20386;-43
2023/09/23 14:55:52;;;;;;;;;;;22.80;53.00;;;;;;6386794;27;20502;-41
2023/09/23 14:58:53;;;;;;;;;;;22.80;53.00;;;;;;6387245;27;20071;-42
2023/09/23 15:01:55;;;;;;;;;;;22.80;53.10;;;;;;6387203;27;19923;-41
2023/09/23 15:04:56;;;;;;;;;;;23.20;53.20;;;;;;6386895;27;19922;-42
2023/09/23 15:07:58;;;;;;;;;;;22.80;53.00;;;;;;6386837;27;19923;-41
2023/09/23 15:11:00;;;;;;;;;;;22.90;53.10;;;;;;6386277;27;19923;-41
2023/09/23 15:14:02;;;;;;;;;;;23.00;53.10;;;;;;6386706;27;20345;-40
2023/09/23 15:17:07;;;;;;;;;;;22.70;52.80;;;;;;6386277;27;19922;-41
2023/09/23 15:20:10;;;;;;;;;;;22.90;53.10;;;;;;6385853;27;19990;-41
2023/09/23 15:23:11;;;;;;;;;;;23.10;53.10;;;;;;6385582;27;20009;-41
2023/09/23 15:26:17;;;;;;;;;;;22.60;52.90;;;;;;6383023;27;20408;-43
2023/09/23 15:29:19;;;;;;;;;;;23.20;53.30;;;;;;6383178;27;19922;-42
2023/09/23 15:32:21;;;;;;;;;;;23.00;53.30;;;;;;6382086;27;19922;-42
2023/09/23 15:35:23;;;;;;;;;;;23.10;53.40;;;;;;6381985;27;19930;-41
2023/09/23 15:38:30;;;;;;;;;;;23.00;52.90;;;;;;6362727;27;20038;-41
2023/09/23 15:41:35;;;;;;;;;;;23.00;53.20;;;;;;6382512;27;19931;-42
2023/09/23 15:44:37;;;;;;;;;;;22.90;53.20;;;;;;6382740;27;20505;-40
2023/09/23 15:47:39;;;;;;;;;;;23.00;53.20;;;;;;6385602;27;20033;-40
2023/09/23 15:50:41;;;;;;;;;;;23.00;53.10;;;;;;6385950;27;19980;-42
2023/09/23 15:53:46;;;;;;;;;;;23.30;53.40;;;;;;6384630;27;20050;-40
2023/09/23 15:56:48;;;;;;;;;;;23.10;50.80;;;;;;6384513;27;19922;-41
2023/09/23 15:59:50;;;;;;;;;;;23.00;53.10;;;;;;6385133;27;19923;-43
2023/09/23 16:02:53;;;;;;;;;;;23.00;53.10;;;;;;6384468;27;20022;-44
2023/09/23 16:05:54;;;;;;;;;;;23.40;53.40;;;;;;6385591;27;20353;-41
2023/09/23 16:08:56;;;;;;;;;;;23.10;53.20;;;;;;6385799;27;19927;-41
2023/09/23 16:12:01;;;;;;;;;;;23.20;53.30;;;;;;6384822;27;19923;-42
2023/09/23 16:15:04;;;;;;;;;;;23.00;53.10;;;;;;6384277;27;19922;-42
2023/09/23 16:18:08;;;;;;;;;;;23.30;53.40;;;;;;6384945;27;19923;-40
2023/09/23 16:21:09;;;;;;;;;;;23.00;53.20;;;;;;6365250;27;19930;-43
2023/09/23 16:24:11;;;;;;;;;;;23.30;53.40;;;;;;6387730;27;19923;-41
2023/09/23 16:27:13;;;;;;;;;;;23.10;53.20;;;;;;6389064;27;19926;-41
2023/09/23 16:30:14;;;;;;;;;;;23.00;53.20;;;;;;6389669;27;19930;-40
2023/09/23 16:33:16;;;;;;;;;;;23.50;53.30;;;;;;6389330;27;19923;-41
2023/09/23 16:36:18;;;;;;;;;;;23.50;53.50;;;;;;6389143;27;20492;-41
2023/09/23 16:39:19;;;;;;;;;;;23.10;53.10;;;;;;6389102;27;20399;-42
2023/09/23 16:42:24;;;;;;;;;;;23.40;53.50;;;;;;6389643;27;19962;-41
2023/09/23 16:45:25;;;;;;;;;;;23.20;53.30;;;;;;6389266;27;20460;-41
2023/09/23 16:48:28;;;;;;;;;;;23.30;53.30;;;;;;6389925;27;19930;-42
2023/09/23 16:51:30;;;;;;;;;;;23.20;53.20;;;;;;6389539;27;20409;-44
2023/09/23 16:54:32;;;;;;;;;;;23.50;53.40;;;;;;6389298;27;20166;-43
2023/09/23 16:57:34;;;;;;;;;;;23.30;53.40;;;;;;6387510;27;20448;-41
2023/09/23 17:00:35;;;;;;;;;;;23.20;53.20;;;;;;6389068;27;19968;-41
2023/09/23 17:03:36;;;;;;;;;;;23.50;53.40;;;;;;6388489;27;20009;-42
2023/09/23 17:06:38;;;;;;;;;;;23.60;53.50;;;;;;6389043;27;19975;-40
2023/09/23 17:09:40;;;;;;;;;;;23.10;53.20;;;;;;6388980;27;19938;-42
2023/09/23 17:12:43;;;;;;;;;;;23.50;53.40;;;;;;6370258;27;20323;-43
2023/09/23 17:15:45;;;;;;;;;;;23.20;53.30;;;;;;6386878;27;19923;-43
2023/09/23 17:18:50;;;;;;;;;;;23.30;53.40;;;;;;6388892;27;19923;-40
2023/09/23 17:21:51;;;;;;;;;;;23.20;53.30;;;;;;6388544;27;19946;-42
2023/09/23 17:24:55;;;;;;;;;;;23.30;53.40;;;;;;6388861;27;19927;-41
2023/09/23 17:27:57;;;;;;;;;;;23.20;53.30;;;;;;6388364;27;19930;-40
2023/09/23 17:30:58;;;;;;;;;;;23.60;53.50;;;;;;6388509;27;20352;-41
2023/09/23 17:34:03;;;;;;;;;;;23.20;53.40;;;;;;6387860;27;19922;-41
2023/09/23 17:37:06;;;;;;;;;;;23.50;53.30;;;;;;6388918;27;19972;-41
2023/09/23 17:40:09;;;;;;;;;;;23.20;53.50;;;;;;6369313;27;19923;-42
2023/09/23 17:43:11;;;;;;;;;;;22.90;53.30;;;;;;6388126;27;20479;-41
2023/09/23 17:46:12;;;;;;;;;;;23.30;53.50;;;;;;6387859;27;19949;-41
2023/09/23 17:49:14;;;;;;;;;;;23.40;53.60;;;;;;6388173;27;19929;-40
2023/09/23 17:52:15;;;;;;;;;;;23.20;53.50;;;;;;6388079;27;20304;-42
2023/09/23 17:55:19;;;;;;;;;;;23.40;53.70;;;;;;6386009;27;19927;-42
2023/09/23 17:58:21;;;;;;;;;;;23.20;53.50;;;;;;6354345;27;19930;-40
2023/09/23 18:01:23;;;;;;;;;;;23.40;53.60;;;;;;6388053;27;19931;-43
2023/09/23 18:04:24;;;;;;;;;;;23.10;53.40;;;;;;6387257;27;20021;-42
2023/09/23 18:07:27;;;;;;;;;;;23.40;53.70;;;;;;6387581;27;19930;-41
2023/09/23 18:10:29;;;;;;;;;;;23.20;53.40;;;;;;6386801;27;19939;-40
2023/09/23 18:13:31;;;;;;;;;;;23.40;53.80;;;;;;6387583;27;20025;-41
2023/09/23 18:16:33;;;;;;;;;;;23.10;53.70;;;;;;6387245;27;19923;-45
2023/09/23 18:19:36;;;;;;;;;;;23.40;53.80;;;;;;6387137;27;19923;-43
2023/09/23 18:22:37;;;;;;;;;;;23.20;53.70;;;;;;6385495;27;20512;-42
2023/09/23 18:25:40;;;;;;;;;;;23.30;54.00;;;;;;6387238;27;19976;-44
2023/09/23 18:28:44;;;;;;;;;;;23.40;51.50;;;;;;6387350;27;19922;-40
2023/09/23 18:31:46;;;;;;;;;;;23.50;54.00;;;;;;6387383;27;19923;-41
2023/09/23 18:34:47;;;;;;;;;;;23.10;53.90;;;;;;6387261;27;20037;-41
2023/09/23 18:37:48;;;;;;;;;;;23.60;54.10;;;;;;6387543;27;19923;-41
2023/09/23 18:40:52;;;;;;;;;;;23.10;54.00;;;;;;6387085;27;19934;-42
2023/09/23 18:43:54;;;;;;;;;;;23.50;54.40;;;;;;6387076;27;19931;-40
2023/09/23 18:46:55;;;;;;;;;;;22.90;54.00;;;;;;6386025;27;19942;-42
2023/09/23 18:49:57;;;;;;;;;;;23.20;54.20;;;;;;6385626;27;19922;-43
2023/09/23 18:52:58;;;;;;;;;;;22.80;53.90;;;;;;6386792;27;19922;-41
2023/09/23 18:56:01;;;;;;;;;;;23.20;54.20;;;;;;6386163;27;19927;-42
2023/09/23 18:59:03;;;;;;;;;;;23.20;51.80;;;;;;6387668;27;19966;-42
2023/09/23 19:02:08;;;;;;;;;;;23.20;54.30;;;;;;6388207;27;19923;-42
2023/09/23 19:05:10;;;;;;;;;;;23.00;54.20;;;;;;6386169;27;20304;-42
2023/09/23 19:08:12;;;;;;;;;;;23.20;54.40;;;;;;6386472;27;20013;-41
2023/09/23 19:11:13;;;;;;;;;;;23.10;54.30;;;;;;6386352;27;19956;-43
2023/09/23 19:14:18;;;;;;;;;;;23.10;54.40;;;;;;6387546;27;20455;-41
2023/09/23 19:17:21;;;;;;;;;;;23.40;54.60;;;;;;6386495;27;19945;-41
2023/09/23 19:20:23;;;;;;;;;;;23.40;54.60;;;;;;6389862;27;19935;-43
2023/09/23 19:23:27;;;;;;;;;;;23.00;54.40;;;;;;6390424;27;20697;-43
2023/09/23 19:26:29;;;;;;;;;;;23.50;54.80;;;;;;6389503;27;20451;-41
2023/09/23 19:29:52;;;;;;;;;;;23.00;54.50;;;;;;6370637;27;19923;-41
2023/09/23 19:32:53;;;;;;;;;;;23.20;54.60;;;;;;6356877;27;19930;-42
2023/09/23 19:35:55;;;;;;;;;;;22.90;54.60;;;;;;6389477;27;19927;-42
2023/09/23 19:38:59;;;;;;;;;;;23.30;54.80;;;;;;6390316;27;19958;-41
2023/09/23 19:42:01;;;;;;;;;;;23.10;53.10;;;;;;6390286;27;20409;-41
2023/09/23 19:45:03;;;;;;;;;;;23.30;54.90;;;;;;6390113;27;19987;-44
2023/09/23 19:48:06;;;;;;;;;;;23.10;54.90;;;;;;6388425;27;19922;-43
2023/09/23 19:51:09;;;;;;;;;;;23.00;54.80;;;;;;6388804;27;19957;-41
2023/09/23 19:54:10;;;;;;;;;;;23.30;55.10;;;;;;6388837;27;20316;-41
2023/09/23 19:57:12;;;;;;;;;;;23.20;55.20;;;;;;6388152;27;20305;-41
2023/09/23 20:00:15;;;;;;;;;;;22.90;55.00;;;;;;6387859;27;19923;-42
2023/09/23 20:03:17;;;;;;;;;;;22.70;54.90;;;;;;6389688;27;20717;-40
2023/09/23 20:06:18;;;;;;;;;;;22.60;54.90;;;;;;6389885;27;20049;-40
2023/09/23 20:09:20;;;;;;;;;;;22.90;55.10;;;;;;6389639;27;19927;-41
2023/09/23 20:12:21;;;;;;;;;;;22.90;55.10;;;;;;6390178;27;19923;-41
2023/09/23 20:15:24;;;;;;;;;;;22.90;55.20;;;;;;6389784;27;20459;-40
2023/09/23 20:18:26;;;;;;;;;;;22.70;55.00;;;;;;6389608;27;19930;-42
2023/09/23 20:21:30;;;;;;;;;;;23.00;55.40;;;;;;6389478;27;19927;-41
2023/09/23 20:24:31;;;;;;;;;;;22.70;55.00;;;;;;6386835;27;19923;-40
2023/09/23 20:27:33;;;;;;;;;;;22.70;55.20;;;;;;6388875;27;19923;-42
2023/09/23 20:30:37;;;;;;;;;;;22.60;55.10;;;;;;6388915;27;19923;-40
2023/09/23 20:33:40;;;;;;;;;;;23.40;55.60;;;;;;6388846;27;19922;-42
2023/09/23 20:36:42;;;;;;;;;;;22.20;55.00;;;;;;6388526;27;19923;-43
2023/09/23 20:39:43;;;;;;;;;;;22.80;55.40;;;;;;6388740;27;19950;-41
2023/09/23 20:42:45;;;;;;;;;;;22.70;54.00;;;;;;6386708;27;19954;-47
2023/09/23 20:45:47;;;;;;;;;;;23.10;55.70;;;;;;6388541;27;20605;-43
2023/09/23 20:48:51;;;;;;;;;;;22.70;55.40;;;;;;6389373;27;20401;-44
2023/09/23 20:51:53;;;;;;;;;;;22.70;55.50;;;;;;6389574;27;19923;-43
2023/09/23 20:54:54;;;;;;;;;;;22.70;55.50;;;;;;6388975;27;19923;-42
2023/09/23 20:57:56;;;;;;;;;;;22.70;55.70;;;;;;6389337;27;20337;-42
2023/09/23 21:00:58;;;;;;;;;;;22.40;55.50;;;;;;6389282;27;19923;-41
2023/09/23 21:03:59;;;;;;;;;;;22.60;55.60;;;;;;6389001;27;20045;-41
2023/09/23 21:07:02;;;;;;;;;;;22.60;55.70;;;;;;6387077;27;19946;-44
2023/09/23 21:10:06;;;;;;;;;;;22.70;55.70;;;;;;6390987;27;19923;-42
2023/09/23 21:13:08;;;;;;;;;;;22.50;55.60;;;;;;6391949;27;19927;-42
2023/09/23 21:16:13;;;;;;;;;;;22.60;55.70;;;;;;6390765;27;19931;-42
2023/09/23 21:19:14;;;;;;;;;;;22.40;55.70;;;;;;6390368;27;20583;-42
2023/09/23 21:22:15;;;;;;;;;;;22.50;55.80;;;;;;6391249;27;20034;-44
2023/09/23 21:25:18;;;;;;;;;;;22.50;55.80;;;;;;6392118;27;19976;-41
2023/09/23 21:28:22;;;;;;;;;;;22.60;53.40;;;;;;6392679;27;19929;-41
2023/09/23 21:31:24;;;;;;;;;;;22.40;55.70;;;;;;6392660;27;19930;-43
2023/09/23 21:34:25;;;;;;;;;;;22.60;56.00;;;;;;6391678;27;19929;-42
2023/09/23 21:37:30;;;;;;;;;;;22.50;56.00;;;;;;6388464;27;20005;-40
2023/09/23 21:40:31;;;;;;;;;;;22.90;56.30;;;;;;6391658;27;19930;-41
2023/09/23 21:43:33;;;;;;;;;;;22.30;56.00;;;;;;6391379;27;19922;-41
2023/09/23 21:46:37;;;;;;;;;;;22.60;56.10;;;;;;6390430;27;20608;-41
2023/09/23 21:49:38;;;;;;;;;;;22.40;56.00;;;;;;6392260;27;20502;-42
2023/09/23 21:52:43;;;;;;;;;;;22.60;56.10;;;;;;6392175;27;19927;-42
2023/09/23 21:55:44;;;;;;;;;;;22.10;53.50;;;;;;6392085;27;19923;-41
2023/09/23 21:58:45;;;;;;;;;;;22.60;56.30;;;;;;6392030;27;19922;-40
2023/09/23 22:01:49;;;;;;;;;;;21.70;55.90;;;;;;6392040;27;20674;-40
2023/09/23 22:04:50;;;;;;;;;;;22.70;56.40;;;;;;6392074;27;19927;-42
2023/09/23 22:07:52;;;;;;;;;;;22.30;56.90;;;;;;6391223;27;19923;-42
2023/09/23 22:10:54;;;;;;;;;;;22.50;56.30;;;;;;6392251;27;19923;-44
2023/09/23 22:13:58;;;;;;;;;;;22.30;56.40;;;;;;6373640;27;20299;-40
2023/09/23 22:17:03;;;;;;;;;;;22.40;54.00;;;;;;6392333;27;19934;-45
2023/09/23 22:20:06;;;;;;;;;;;22.30;56.50;;;;;;6391967;27;20386;-40
2023/09/23 22:23:09;;;;;;;;;;;22.40;56.50;;;;;;6391039;27;19922;-40
2023/09/23 22:26:13;;;;;;;;;;;22.40;56.50;;;;;;6388247;27;20296;-40
2023/09/23 22:29:16;;;;;;;;;;;22.60;56.60;;;;;;6391234;27;19922;-41
2023/09/23 22:32:18;;;;;;;;;;;22.10;54.80;;;;;;6391094;27;19926;-46
2023/09/23 22:35:20;;;;;;;;;;;22.30;56.60;;;;;;6387360;27;19934;-42
2023/09/23 22:38:21;;;;;;;;;;;22.30;56.60;;;;;;6391281;27;19923;-40
2023/09/23 22:41:23;;;;;;;;;;;22.10;56.50;;;;;;6390662;27;19923;-41
2023/09/23 22:44:25;;;;;;;;;;;22.10;56.50;;;;;;6387015;27;19927;-40
2023/09/23 22:47:32;;;;;;;;;;;22.30;56.60;;;;;;6386707;27;19954;-40
2023/09/23 22:50:34;;;;;;;;;;;22.20;54.20;;;;;;6387600;27;19923;-41
2023/09/23 22:53:36;;;;;;;;;;;22.10;56.60;;;;;;6387452;27;19923;-40
2023/09/23 22:56:39;;;;;;;;;;;22.60;57.00;;;;;;6387465;27;19923;-41
2023/09/23 22:59:40;;;;;;;;;;;22.00;56.60;;;;;;6387433;27;20444;-40
2023/09/23 23:02:44;;;;;;;;;;;22.30;56.90;;;;;;6387717;27;19923;-41
2023/09/23 23:05:48;;;;;;;;;;;22.00;56.60;;;;;;6387433;27;20407;-41
2023/09/23 23:08:51;;;;;;;;;;;22.70;57.10;;;;;;6386968;27;20606;-41
2023/09/23 23:11:52;;;;;;;;;;;22.40;56.80;;;;;;6384295;27;20374;-41
2023/09/23 23:14:56;;;;;;;;;;;22.30;56.70;;;;;;6388653;27;20371;-40
2023/09/23 23:17:58;;;;;;;;;;;22.10;56.90;;;;;;6387270;27;19945;-40
2023/09/23 23:21:01;;;;;;;;;;;22.20;56.90;;;;;;6386391;27;19934;-40
2023/09/23 23:24:03;;;;;;;;;;;21.80;56.70;;;;;;6367722;27;19931;-41
2023/09/23 23:27:05;;;;;;;;;;;21.80;56.80;;;;;;6384981;27;20463;-41
2023/09/23 23:30:07;;;;;;;;;;;22.10;56.80;;;;;;6383958;27;20307;-40
2023/09/23 23:33:10;;;;;;;;;;;22.30;56.90;;;;;;6384111;27;19930;-42
2023/09/23 23:36:12;;;;;;;;;;;22.00;56.90;;;;;;6384132;27;20383;-42
2023/09/23 23:39:13;;;;;;;;;;;22.10;57.10;;;;;;6385495;27;20813;-40
2023/09/23 23:42:15;;;;;;;;;;;22.00;56.90;;;;;;6384703;27;19999;-41
2023/09/23 23:45:19;;;;;;;;;;;22.20;57.20;;;;;;6386458;27;20411;-40
2023/09/23 23:48:21;;;;;;;;;;;22.10;57.00;;;;;;6387178;27;19934;-42
2023/09/23 23:51:25;;;;;;;;;;;22.00;57.10;;;;;;6387066;27;19922;-42
2023/09/23 23:54:29;;;;;;;;;;;21.80;56.90;;;;;;6385555;27;20386;-43
2023/09/23 23:57:31;;;;;;;;;;;22.00;57.00;;;;;;6386127;27;19927;-41
